Time;durP1;ratioP1;P1;durP2;ratioP2;P2;SDS_P1;SDS_P2;PMS_P1;PMS_P2;Temp;Humidity;BMP_temperature;BMP_pressure;BME280_temperature;BME280_humidity;BME280_pressure;Samples;Min_cycle;Max_cycle;Signal;HPM_P1;HPM_P2
2022/03/25 00:01:34;;;;;;;36.38;18.90;;;4.70;79.30;;;;;;5069441;28;20551;-78
2022/03/25 00:04:00;;;;;;;35.28;19.05;;;4.60;79.80;;;;;;5052188;28;20051;-78
2022/03/25 00:06:26;;;;;;;32.28;19.67;;;4.60;80.00;;;;;;5067508;28;20036;-78
2022/03/25 00:08:52;;;;;;;30.95;18.98;;;4.60;80.10;;;;;;5054616;28;20494;-78
2022/03/25 00:11:18;;;;;;;40.40;18.00;;;4.60;79.70;;;;;;5082443;28;20088;-78
2022/03/25 00:13:43;;;;;;;31.02;18.27;;;4.50;79.50;;;;;;5052949;28;20033;-78
2022/03/25 00:16:09;;;;;;;35.05;19.77;;;4.50;79.30;;;;;;5047971;28;20033;-78
2022/03/25 00:18:34;;;;;;;33.97;19.77;;;4.40;79.50;;;;;;5074416;28;20554;-78
2022/03/25 00:21:00;;;;;;;32.53;19.02;;;4.40;79.40;;;;;;5069674;28;20364;-78
2022/03/25 00:23:26;;;;;;;36.22;21.08;;;4.40;79.80;;;;;;5044151;28;20377;-78
2022/03/25 00:25:51;;;;;;;36.05;20.13;;;4.40;80.40;;;;;;5069977;28;20048;-78
2022/03/25 00:28:17;;;;;;;40.53;20.75;;;4.30;80.80;;;;;;5059038;28;20032;-78
2022/03/25 00:30:43;;;;;;;37.13;20.50;;;4.40;80.70;;;;;;5050232;28;20032;-78
2022/03/25 00:33:09;;;;;;;36.55;20.58;;;4.30;80.70;;;;;;5072965;28;20017;-78
2022/03/25 00:35:35;;;;;;;36.55;19.73;;;4.30;80.50;;;;;;5058875;28;20036;-78
2022/03/25 00:38:01;;;;;;;36.17;19.95;;;4.30;80.60;;;;;;5048311;28;20480;-78
2022/03/25 00:40:27;;;;;;;36.30;20.05;;;4.40;80.90;;;;;;5069898;28;20025;-78
2022/03/25 00:42:52;;;;;;;36.47;19.55;;;4.40;81.10;;;;;;5056660;28;20025;-78
2022/03/25 00:45:18;;;;;;;34.72;19.17;;;4.40;81.20;;;;;;5064546;28;20806;-78
2022/03/25 00:47:44;;;;;;;31.88;19.55;;;4.30;81.30;;;;;;5060860;28;20025;-78
2022/03/25 00:50:11;;;;;;;37.70;21.08;;;4.20;81.50;;;;;;5050083;28;20594;-78
2022/03/25 00:52:37;;;;;;;37.72;20.45;;;4.20;81.70;;;;;;5059345;28;20035;-78
2022/03/25 00:55:03;;;;;;;31.75;19.02;;;4.20;81.80;;;;;;5065469;28;20446;-78
2022/03/25 00:57:29;;;;;;;31.13;19.10;;;4.20;81.80;;;;;;5072090;28;20100;-78
2022/03/25 00:59:54;;;;;;;37.38;20.90;;;4.20;81.80;;;;;;5064127;28;20119;-78
2022/03/25 01:02:20;;;;;;;39.10;21.60;;;4.10;82.10;;;;;;5062680;28;20484;-78
2022/03/25 01:04:46;;;;;;;36.95;19.50;;;4.10;82.60;;;;;;5058410;28;20027;-78
2022/03/25 01:07:11;;;;;;;33.75;19.23;;;4.10;83.00;;;;;;5084063;28;20111;-78
2022/03/25 01:09:37;;;;;;;39.13;21.08;;;4.10;82.80;;;;;;5050716;28;20132;-78
2022/03/25 01:12:03;;;;;;;39.05;21.25;;;4.10;82.80;;;;;;5081488;28;20398;-78
2022/03/25 01:14:28;;;;;;;38.13;20.80;;;4.10;82.90;;;;;;5054124;28;20025;-78
2022/03/25 01:16:54;;;;;;;39.03;21.15;;;4.00;82.70;;;;;;5061638;28;20043;-78
2022/03/25 01:19:20;;;;;;;42.65;21.80;;;3.90;82.30;;;;;;5061194;28;20017;-78
2022/03/25 01:21:46;;;;;;;36.80;21.85;;;3.90;82.40;;;;;;5056426;28;20028;-78
2022/03/25 01:24:12;;;;;;;39.75;22.42;;;3.90;82.60;;;;;;5050654;28;20109;-78
2022/03/25 01:26:39;;;;;;;37.70;22.02;;;3.80;82.80;;;;;;5062604;28;20028;-78
2022/03/25 01:29:05;;;;;;;38.33;22.42;;;3.80;83.00;;;;;;5049239;28;20036;-78
2022/03/25 01:31:32;;;;;;;38.90;22.42;;;3.80;83.50;;;;;;5052261;28;20032;-78
2022/03/25 01:33:58;;;;;;;36.10;20.98;;;3.70;83.80;;;;;;5065147;28;20029;-78
2022/03/25 01:36:23;;;;;;;38.30;21.50;;;3.70;83.90;;;;;;5056932;28;20392;-78
2022/03/25 01:38:49;;;;;;;37.92;22.15;;;3.70;83.90;;;;;;5062117;28;20029;-78
2022/03/25 01:41:18;;;;;;;35.78;21.65;;;3.70;83.80;;;;;;5048443;28;20025;-78
2022/03/25 01:43:55;;;;;;;36.35;21.45;;;3.80;83.70;;;;;;5069022;28;20029;-78
2022/03/25 01:46:21;;;;;;;46.83;22.95;;;3.70;83.70;;;;;;5059216;28;20508;-78
2022/03/25 01:48:47;;;;;;;41.63;22.90;;;3.70;83.70;;;;;;5047419;28;20053;-78
2022/03/25 01:51:19;;;;;;;34.10;21.77;;;3.60;83.80;;;;;;5066941;28;20039;-78
2022/03/25 01:53:44;;;;;;;37.60;22.98;;;3.60;83.70;;;;;;5072747;28;20365;-78
2022/03/25 01:56:10;;;;;;;39.50;24.90;;;3.50;83.90;;;;;;5051916;28;20036;-78
2022/03/25 01:58:39;;;;;;;38.28;23.40;;;3.50;83.90;;;;;;5050332;28;20049;-78
2022/03/25 02:01:04;;;;;;;41.13;23.80;;;3.50;84.10;;;;;;5048280;28;20033;-78
2022/03/25 02:03:31;;;;;;;44.03;23.85;;;3.40;84.10;;;;;;5058904;28;20033;-78
2022/03/25 02:05:56;;;;;;;39.15;23.70;;;3.40;84.10;;;;;;5037551;28;20606;-78
2022/03/25 02:08:22;;;;;;;39.25;23.60;;;3.30;84.10;;;;;;5071036;28;20040;-78
2022/03/25 02:10:48;;;;;;;38.63;23.85;;;3.30;83.90;;;;;;5036982;28;20489;-78
2022/03/25 02:13:13;;;;;;;45.78;25.55;;;3.30;84.10;;;;;;5049937;28;20021;-78
2022/03/25 02:15:41;;;;;;;48.03;25.35;;;3.30;84.50;;;;;;5069142;28;20435;-77
2022/03/25 02:18:10;;;;;;;43.63;25.35;;;3.30;84.60;;;;;;5055861;28;20109;-78
2022/03/25 02:20:37;;;;;;;39.65;24.05;;;3.40;84.60;;;;;;5054809;28;20023;-78
2022/03/25 02:23:04;;;;;;;48.03;24.40;;;3.30;84.40;;;;;;5072856;28;20032;-78
2022/03/25 02:25:30;;;;;;;44.65;24.42;;;3.30;84.50;;;;;;5071721;28;20036;-78
2022/03/25 02:27:58;;;;;;;41.28;24.58;;;3.30;84.60;;;;;;5052945;28;20055;-78
2022/03/25 02:30:25;;;;;;;45.70;24.60;;;3.20;84.70;;;;;;5044266;28;20032;-78
2022/03/25 02:32:51;;;;;;;42.50;24.40;;;3.20;84.70;;;;;;5067300;28;20117;-77
2022/03/25 02:35:17;;;;;;;42.05;23.60;;;3.10;84.70;;;;;;5047355;28;20063;-77
2022/03/25 02:37:42;;;;;;;39.38;23.33;;;3.10;85.00;;;;;;5049384;28;20044;-77
2022/03/25 02:40:08;;;;;;;45.75;25.63;;;3.10;85.00;;;;;;5059941;28;22733;-77
2022/03/25 02:42:34;;;;;;;44.88;24.58;;;3.00;85.00;;;;;;5059327;28;20055;-78
2022/03/25 02:44:59;;;;;;;47.67;25.55;;;3.00;85.00;;;;;;5060429;28;20032;-78
2022/03/25 02:47:25;;;;;;;40.55;23.00;;;3.00;85.10;;;;;;5066220;28;20039;-78
2022/03/25 02:49:51;;;;;;;44.75;23.95;;;3.00;85.40;;;;;;5066409;28;20024;-78
2022/03/25 02:52:17;;;;;;;50.92;26.52;;;2.90;85.40;;;;;;5057063;28;20082;-78
2022/03/25 02:54:42;;;;;;;48.42;25.85;;;3.00;85.60;;;;;;5044430;28;20423;-78
2022/03/25 02:57:08;;;;;;;48.70;25.55;;;2.90;85.70;;;;;;5054153;28;20035;-78
2022/03/25 02:59:34;;;;;;;45.75;25.98;;;2.90;85.80;;;;;;5066990;28;20028;-78
2022/03/25 03:01:59;;;;;;;46.53;25.48;;;2.90;86.00;;;;;;5049894;28;20112;-78
2022/03/25 03:04:27;;;;;;;44.42;25.27;;;2.90;85.90;;;;;;5061348;28;20099;-78
2022/03/25 03:06:52;;;;;;;42.80;25.40;;;2.90;85.80;;;;;;5064519;28;20165;-78
2022/03/25 03:09:18;;;;;;;45.88;24.38;;;2.90;85.80;;;;;;5050028;28;20053;-78
2022/03/25 03:11:44;;;;;;;44.03;25.25;;;2.90;85.90;;;;;;5074066;28;20028;-78
2022/03/25 03:14:09;;;;;;;46.33;25.27;;;2.90;85.90;;;;;;5069452;28;20028;-78
2022/03/25 03:16:35;;;;;;;43.10;25.40;;;2.80;85.90;;;;;;5053333;28;20017;-78
2022/03/25 03:19:00;;;;;;;49.60;24.45;;;2.80;85.80;;;;;;5050584;28;20380;-78
2022/03/25 03:21:26;;;;;;;44.60;24.63;;;2.80;85.80;;;;;;5049939;28;20480;-78
2022/03/25 03:23:52;;;;;;;45.20;25.13;;;2.70;85.80;;;;;;5071878;28;20039;-78
2022/03/25 03:26:22;;;;;;;47.05;25.48;;;2.80;85.90;;;;;;5052324;28;20082;-78
2022/03/25 03:28:48;;;;;;;32.30;19.17;;;2.80;86.10;;;;;;5047051;28;20025;-78
2022/03/25 03:31:14;;;;;;;47.22;25.58;;;2.70;86.30;;;;;;5067095;28;20024;-78
2022/03/25 03:33:40;;;;;;;45.55;24.38;;;2.80;86.30;;;;;;5054185;28;20028;-78
2022/03/25 03:36:05;;;;;;;45.63;24.85;;;2.70;86.30;;;;;;5048289;28;20052;-78
2022/03/25 03:38:31;;;;;;;41.90;23.52;;;2.70;86.40;;;;;;5049297;28;20068;-78
2022/03/25 03:40:56;;;;;;;50.92;26.08;;;2.70;86.50;;;;;;5045331;28;20025;-78
2022/03/25 03:43:22;;;;;;;46.38;24.65;;;2.70;86.40;;;;;;5050137;28;20031;-78
2022/03/25 03:45:47;;;;;;;47.90;25.13;;;2.70;86.60;;;;;;5044825;28;20041;-78
2022/03/25 03:48:13;;;;;;;44.40;24.48;;;2.70;86.50;;;;;;5048072;28;20029;-78
2022/03/25 03:50:39;;;;;;;51.97;25.83;;;2.60;86.60;;;;;;5044388;28;20037;-78
2022/03/25 03:53:05;;;;;;;48.15;25.40;;;2.60;86.60;;;;;;5045268;28;20587;-78
2022/03/25 03:55:31;;;;;;;43.45;24.88;;;2.60;86.50;;;;;;5039482;28;20021;-78
2022/03/25 03:57:57;;;;;;;43.92;26.48;;;2.60;86.50;;;;;;5055370;28;20108;-78
2022/03/25 04:00:24;;;;;;;43.95;25.38;;;2.60;86.60;;;;;;5048680;28;20029;-78
2022/03/25 04:02:51;;;;;;;42.22;25.10;;;2.60;86.60;;;;;;5051393;28;20028;-78
2022/03/25 04:05:16;;;;;;;41.13;25.27;;;2.60;86.60;;;;;;5044401;28;20523;-78
2022/03/25 04:07:47;;;;;;;43.45;26.25;;;2.50;86.60;;;;;;5047892;28;20025;-78
2022/03/25 04:10:14;;;;;;;48.45;25.58;;;2.50;86.60;;;;;;5045302;28;20048;-78
2022/03/25 04:12:40;;;;;;;49.03;27.70;;;2.50;86.70;;;;;;5049873;28;20523;-78
2022/03/25 04:15:10;;;;;;;54.60;26.90;;;2.50;86.90;;;;;;5043855;28;20021;-78
2022/03/25 04:17:39;;;;;;;47.70;28.48;;;2.50;87.10;;;;;;5044745;28;20044;-78
2022/03/25 04:20:07;;;;;;;52.10;28.83;;;2.50;87.20;;;;;;5038347;28;20024;-77
2022/03/25 04:22:32;;;;;;;57.92;29.67;;;2.50;87.20;;;;;;5055912;28;20041;-77
2022/03/25 04:24:58;;;;;;;50.20;28.45;;;2.40;87.20;;;;;;5045071;28;20381;-78
2022/03/25 04:27:23;;;;;;;48.97;28.52;;;2.50;87.30;;;;;;5047359;28;20078;-78
2022/03/25 04:29:49;;;;;;;52.13;27.60;;;2.40;87.30;;;;;;5045281;28;20036;-78
2022/03/25 04:32:15;;;;;;;54.83;29.05;;;2.40;87.30;;;;;;5050551;28;20995;-78
2022/03/25 04:34:40;;;;;;;49.58;27.45;;;2.40;87.40;;;;;;5050883;28;20030;-78
2022/03/25 04:37:07;;;;;;;55.67;28.15;;;2.40;87.20;;;;;;5059404;28;20128;-78
2022/03/25 04:39:33;;;;;;;49.28;29.55;;;2.40;87.20;;;;;;5051260;28;20051;-78
2022/03/25 04:41:59;;;;;;;50.55;27.98;;;2.30;87.20;;;;;;5077956;28;20032;-78
2022/03/25 04:44:24;;;;;;;46.30;26.40;;;2.30;87.30;;;;;;5051312;28;20107;-78
2022/03/25 04:46:50;;;;;;;45.55;26.48;;;2.30;87.30;;;;;;5070628;28;20024;-78
2022/03/25 04:49:15;;;;;;;54.90;27.67;;;2.30;87.30;;;;;;5051919;28;20033;-78
2022/03/25 04:51:41;;;;;;;53.92;29.17;;;2.30;87.40;;;;;;5054116;28;20543;-78
2022/03/25 04:54:06;;;;;;;50.92;28.73;;;2.30;87.40;;;;;;5051116;28;20021;-78
2022/03/25 04:56:34;;;;;;;51.80;28.85;;;2.30;87.40;;;;;;5071824;28;20032;-78
2022/03/25 04:59:00;;;;;;;53.35;29.95;;;2.30;87.30;;;;;;5052446;28;20024;-78
2022/03/25 05:01:25;;;;;;;55.63;31.42;;;2.30;87.50;;;;;;5065720;28;20101;-78
2022/03/25 05:03:51;;;;;;;54.70;29.73;;;2.30;87.50;;;;;;5064576;28;20041;-78
2022/03/25 05:06:16;;;;;;;53.10;28.15;;;2.30;87.40;;;;;;5040735;28;20537;-78
2022/03/25 05:08:42;;;;;;;55.15;28.85;;;2.20;87.40;;;;;;5048487;28;20078;-78
2022/03/25 05:11:07;;;;;;;51.97;28.27;;;2.20;87.40;;;;;;5052483;28;20442;-78
2022/03/25 05:13:33;;;;;;;57.22;30.30;;;2.20;87.30;;;;;;5054302;28;20050;-78
2022/03/25 05:15:59;;;;;;;57.85;29.75;;;2.20;87.40;;;;;;5044026;28;20467;-78
2022/03/25 05:18:24;;;;;;;55.15;28.35;;;2.20;87.50;;;;;;5044296;28;20017;-77
2022/03/25 05:20:50;;;;;;;55.80;29.60;;;2.10;87.60;;;;;;5065531;28;20024;-77
2022/03/25 05:23:16;;;;;;;58.38;29.75;;;2.20;87.80;;;;;;5074649;28;20029;-77
2022/03/25 05:25:41;;;;;;;56.15;30.00;;;2.20;87.80;;;;;;5060080;28;20486;-77
2022/03/25 05:28:07;;;;;;;55.67;28.55;;;2.20;87.90;;;;;;5056228;28;20028;-77
2022/03/25 05:30:34;;;;;;;57.35;30.38;;;2.20;87.80;;;;;;5047300;28;20028;-77
2022/03/25 05:33:00;;;;;;;58.45;30.00;;;2.20;87.60;;;;;;5048197;28;20487;-77
2022/03/25 05:35:27;;;;;;;53.78;29.15;;;2.30;87.60;;;;;;5063562;28;20063;-77
2022/03/25 05:37:53;;;;;;;54.70;30.23;;;2.30;87.50;;;;;;5062633;28;20060;-77
2022/03/25 05:40:20;;;;;;;55.22;30.52;;;2.30;87.50;;;;;;5032139;28;20037;-77
2022/03/25 05:42:46;;;;;;;54.03;29.25;;;2.30;87.50;;;;;;5048112;28;20052;-77
2022/03/25 05:45:12;;;;;;;58.75;28.70;;;2.30;87.40;;;;;;5060660;28;20032;-77
2022/03/25 05:47:39;;;;;;;56.67;30.65;;;2.40;87.30;;;;;;5069434;28;20081;-77
2022/03/25 05:50:06;;;;;;;54.40;30.65;;;2.40;87.20;;;;;;5047215;28;20028;-77
2022/03/25 05:52:31;;;;;;;57.95;29.73;;;2.50;87.30;;;;;;5040363;28;20056;-76
2022/03/25 05:54:57;;;;;;;55.42;29.90;;;2.60;87.30;;;;;;5065694;28;20063;-77
2022/03/25 05:57:23;;;;;;;56.10;31.02;;;2.60;87.30;;;;;;5051307;28;20035;-77
2022/03/25 05:59:50;;;;;;;56.63;30.15;;;2.70;87.30;;;;;;5038343;28;20056;-77
2022/03/25 06:02:16;;;;;;;57.20;30.95;;;2.70;87.20;;;;;;5067108;28;20076;-77
2022/03/25 06:04:41;;;;;;;59.20;29.65;;;2.80;87.10;;;;;;5049377;28;20586;-77
2022/03/25 06:07:07;;;;;;;60.30;31.52;;;2.90;87.20;;;;;;5065854;28;20105;-77
2022/03/25 06:09:32;;;;;;;53.80;29.73;;;3.10;87.20;;;;;;5044687;28;20143;-77
2022/03/25 06:11:58;;;;;;;60.70;31.40;;;3.10;87.10;;;;;;5053571;28;20029;-77
2022/03/25 06:14:25;;;;;;;56.13;29.40;;;3.20;87.00;;;;;;5062186;28;20020;-77
2022/03/25 06:16:51;;;;;;;57.92;31.15;;;3.30;86.80;;;;;;5047845;28;20036;-77
2022/03/25 06:19:17;;;;;;;59.95;32.05;;;3.40;86.50;;;;;;5045858;28;20029;-77
2022/03/25 06:21:43;;;;;;;53.78;29.92;;;3.50;86.30;;;;;;5062446;28;20077;-77
2022/03/25 06:24:08;;;;;;;57.35;31.90;;;3.60;86.20;;;;;;5065102;28;20472;-77
2022/03/25 06:26:34;;;;;;;55.38;30.42;;;3.80;86.00;;;;;;5047789;28;20020;-76
2022/03/25 06:29:00;;;;;;;60.25;31.70;;;3.90;85.90;;;;;;5065376;28;20029;-76
2022/03/25 06:31:25;;;;;;;54.92;27.67;;;4.00;85.60;;;;;;5055920;28;20027;-76
2022/03/25 06:33:50;;;;;;;51.65;28.00;;;4.10;85.50;;;;;;5048547;28;20036;-77
2022/03/25 06:36:16;;;;;;;48.40;28.15;;;4.20;85.40;;;;;;5045180;28;20459;-77
2022/03/25 06:38:43;;;;;;;44.95;25.50;;;4.30;85.30;;;;;;5053565;28;20090;-77
2022/03/25 06:41:09;;;;;;;45.85;25.73;;;4.40;85.20;;;;;;5073872;28;20077;-77
2022/03/25 06:43:36;;;;;;;50.30;25.40;;;4.60;85.30;;;;;;5068351;28;20024;-77
2022/03/25 06:46:03;;;;;;;34.72;22.95;;;4.60;85.20;;;;;;5064021;28;20036;-77
2022/03/25 06:48:28;;;;;;;40.25;24.13;;;4.70;85.30;;;;;;5051043;28;20028;-77
2022/03/25 06:50:54;;;;;;;43.75;24.40;;;4.90;85.60;;;;;;5045436;28;20028;-77
2022/03/25 06:53:20;;;;;;;39.38;23.80;;;5.10;85.50;;;;;;5053063;28;20021;-77
2022/03/25 06:55:46;;;;;;;41.17;24.63;;;5.10;85.00;;;;;;5058047;28;20514;-77
2022/03/25 06:58:12;;;;;;;40.28;24.90;;;5.30;85.20;;;;;;5075964;28;20482;-77
2022/03/25 07:00:38;;;;;;;41.47;24.45;;;5.50;85.20;;;;;;5068462;28;20028;-77
2022/03/25 07:03:04;;;;;;;40.38;23.35;;;5.60;84.40;;;;;;5074767;28;20020;-76
2022/03/25 07:05:31;;;;;;;39.72;23.70;;;5.80;83.30;;;;;;5084869;28;20032;-76
2022/03/25 07:07:58;;;;;;;39.85;22.90;;;6.00;80.70;;;;;;5055688;28;20472;-76
2022/03/25 07:10:26;;;;;;;40.40;23.60;;;6.20;80.00;;;;;;5071080;28;20021;-76
2022/03/25 07:12:52;;;;;;;45.30;24.30;;;6.30;79.80;;;;;;5054988;28;20029;-77
2022/03/25 07:15:18;;;;;;;40.42;22.80;;;6.50;80.30;;;;;;5063985;28;20085;-77
2022/03/25 07:17:44;;;;;;;44.03;24.30;;;6.70;80.60;;;;;;5071505;28;20057;-77
2022/03/25 07:20:14;;;;;;;37.22;22.17;;;6.90;79.10;;;;;;5062610;28;20173;-77
2022/03/25 07:22:50;;;;;;;45.75;24.02;;;7.20;79.10;;;;;;5069270;28;20056;-77
2022/03/25 07:25:17;;;;;;;45.63;23.45;;;7.40;78.40;;;;;;5048135;28;20032;-77
2022/03/25 07:27:44;;;;;;;43.60;24.30;;;7.60;77.80;;;;;;5052788;28;20093;-77
2022/03/25 07:30:11;;;;;;;43.17;24.95;;;7.80;77.00;;;;;;5055472;28;20077;-77
2022/03/25 07:32:37;;;;;;;49.22;26.95;;;8.00;76.20;;;;;;5050551;28;20082;-77
2022/03/25 07:35:02;;;;;;;47.38;27.80;;;8.10;75.50;;;;;;5051774;28;20510;-77
2022/03/25 07:37:28;;;;;;;49.35;30.15;;;8.30;76.00;;;;;;5068200;28;20067;-77
2022/03/25 07:39:54;;;;;;;46.05;28.35;;;8.50;75.10;;;;;;5050820;28;20034;-77
2022/03/25 07:42:19;;;;;;;50.25;31.42;;;8.60;74.40;;;;;;5053869;28;20029;-77
2022/03/25 07:44:46;;;;;;;50.85;30.80;;;8.70;72.90;;;;;;5068625;28;20051;-77
2022/03/25 07:47:13;;;;;;;50.05;30.60;;;8.90;73.50;;;;;;5048554;28;20036;-77
2022/03/25 07:49:40;;;;;;;53.75;32.50;;;9.20;73.10;;;;;;5050073;28;20092;-78
2022/03/25 07:52:07;;;;;;;54.35;32.42;;;9.40;71.80;;;;;;5049635;28;20471;-76
2022/03/25 07:54:32;;;;;;;59.42;33.00;;;9.50;71.50;;;;;;5083594;28;20043;-76
2022/03/25 07:56:58;;;;;;;56.72;34.00;;;9.60;70.80;;;;;;5074221;28;20371;-77
2022/03/25 07:59:28;;;;;;;61.63;33.55;;;9.80;70.60;;;;;;5060302;28;20246;-77
2022/03/25 08:01:54;;;;;;;56.22;34.08;;;9.80;69.40;;;;;;5081494;28;20078;-77
2022/03/25 08:04:23;;;;;;;60.58;36.33;;;10.00;69.40;;;;;;5053765;28;20142;-77
2022/03/25 08:06:49;;;;;;;61.33;37.05;;;10.20;70.00;;;;;;5069786;28;20036;-77
2022/03/25 08:09:15;;;;;;;62.72;36.53;;;10.40;69.60;;;;;;5054587;28;20028;-77
2022/03/25 08:11:40;;;;;;;65.43;38.42;;;10.40;69.50;;;;;;5060720;28;20051;-77
2022/03/25 08:14:06;;;;;;;64.65;37.38;;;10.50;69.00;;;;;;5063681;28;20029;-77
2022/03/25 08:16:32;;;;;;;61.30;35.95;;;10.60;68.30;;;;;;5046030;28;20025;-77
2022/03/25 08:18:58;;;;;;;58.78;35.65;;;10.70;68.00;;;;;;5052987;28;20025;-77
2022/03/25 08:21:24;;;;;;;58.28;35.88;;;10.80;67.40;;;;;;5066701;28;20040;-77
2022/03/25 08:29:18;;;;;;;57.40;33.28;;;11.30;67.20;;;;;;5071666;28;20031;-77
2022/03/25 08:31:44;;;;;;;50.10;32.17;;;11.40;67.70;;;;;;5078371;28;20387;-77
2022/03/25 08:34:14;;;;;;;51.72;32.58;;;11.60;67.20;;;;;;5055371;28;20016;-78
2022/03/25 08:36:40;;;;;;;48.08;31.10;;;11.80;66.90;;;;;;5044479;28;20067;-77
2022/03/25 08:39:05;;;;;;;50.03;30.58;;;11.80;66.10;;;;;;5062603;28;20025;-77
2022/03/25 08:41:31;;;;;;;50.35;31.70;;;12.20;66.70;;;;;;5074247;28;20106;-78
2022/03/25 08:43:56;;;;;;;49.15;31.90;;;12.30;65.70;;;;;;5066915;28;20034;-77
2022/03/25 08:46:22;;;;;;;53.10;31.17;;;12.60;66.20;;;;;;5068345;28;20024;-77
2022/03/25 08:48:48;;;;;;;53.28;31.20;;;12.70;64.80;;;;;;5051711;28;20081;-78
2022/03/25 08:51:13;;;;;;;47.35;30.35;;;12.90;63.60;;;;;;5064419;28;20033;-78
2022/03/25 08:53:40;;;;;;;46.03;31.08;;;12.90;62.90;;;;;;5062850;28;20447;-78
2022/03/25 08:56:06;;;;;;;52.35;32.65;;;12.90;62.30;;;;;;5063033;28;20021;-78
2022/03/25 08:58:31;;;;;;;50.65;31.63;;;13.10;62.60;;;;;;5050312;28;20025;-77
2022/03/25 09:00:57;;;;;;;50.20;32.13;;;13.50;61.80;;;;;;5072474;28;20039;-78
2022/03/25 09:03:23;;;;;;;49.35;31.45;;;13.60;61.90;;;;;;5051992;28;20021;-78
2022/03/25 09:05:49;;;;;;;48.83;32.33;;;13.70;60.20;;;;;;5049939;28;20081;-78
2022/03/25 09:08:15;;;;;;;53.35;32.67;;;13.50;60.60;;;;;;5056607;28;20028;-78
2022/03/25 09:10:41;;;;;;;54.67;33.47;;;13.80;61.40;;;;;;5062736;28;20031;-78
2022/03/25 09:13:07;;;;;;;56.05;33.97;;;14.10;59.90;;;;;;5070109;28;20403;-78
2022/03/25 09:15:32;;;;;;;48.25;30.80;;;14.20;59.70;;;;;;5060584;28;20107;-78
2022/03/25 09:17:58;;;;;;;54.22;32.35;;;14.00;60.50;;;;;;5046943;28;20031;-78
2022/03/25 09:20:23;;;;;;;52.85;33.38;;;14.30;59.60;;;;;;5053757;28;20352;-78
2022/03/25 09:22:51;;;;;;;57.60;32.92;;;14.50;60.30;;;;;;5046846;28;20036;-78
2022/03/25 09:25:16;;;;;;;48.28;32.15;;;14.40;60.10;;;;;;5061444;28;20020;-78
2022/03/25 09:27:42;;;;;;;55.75;34.33;;;14.40;58.90;;;;;;5060488;28;20028;-79
2022/03/25 09:30:09;;;;;;;54.30;33.35;;;14.40;59.10;;;;;;5054129;28;20644;-78
2022/03/25 09:32:35;;;;;;;52.63;32.30;;;14.30;58.20;;;;;;5049548;28;20593;-78
2022/03/25 09:35:09;;;;;;;50.60;31.55;;;14.50;57.80;;;;;;5067827;28;20024;-78
2022/03/25 09:37:46;;;;;;;57.10;32.85;;;14.90;56.90;;;;;;5044365;28;20452;-78
2022/03/25 09:40:20;;;;;;;58.60;30.77;;;14.60;56.60;;;;;;5037666;28;20120;-78
2022/03/25 09:42:47;;;;;;;47.78;30.13;;;15.00;56.60;;;;;;5048680;28;20032;-78
2022/03/25 09:45:15;;;;;;;55.92;30.92;;;15.10;55.70;;;;;;5046565;28;20117;-78
2022/03/25 09:47:42;;;;;;;47.80;29.25;;;15.20;54.70;;;;;;5045730;28;20040;-78
2022/03/25 09:50:12;;;;;;;47.15;28.95;;;15.20;54.90;;;;;;5047940;28;20029;-78
2022/03/25 09:52:38;;;;;;;49.80;30.42;;;15.30;52.20;;;;;;5063040;28;20041;-78
2022/03/25 09:55:04;;;;;;;50.90;28.25;;;15.20;50.80;;;;;;5047534;28;20438;-78
2022/03/25 09:57:30;;;;;;;49.08;27.55;;;15.30;50.60;;;;;;5051136;28;20396;-78
2022/03/25 09:59:56;;;;;;;49.30;28.40;;;15.50;50.30;;;;;;5049344;28;20460;-78
2022/03/25 10:02:24;;;;;;;46.80;28.85;;;15.70;48.50;;;;;;5072422;28;20524;-78
2022/03/25 10:04:50;;;;;;;44.30;27.50;;;15.80;48.70;;;;;;5055945;28;20032;-78
2022/03/25 10:07:27;;;;;;;48.72;27.85;;;15.40;48.10;;;;;;5042320;28;20033;-78
2022/03/25 10:10:09;;;;;;;42.92;26.23;;;15.70;47.70;;;;;;5055153;28;20039;-78
2022/03/25 10:12:36;;;;;;;48.33;26.77;;;15.60;46.40;;;;;;5063497;28;20025;-78
2022/03/25 10:15:25;;;;;;;42.72;26.95;;;15.70;47.60;;;;;;5047134;28;20488;-78
2022/03/25 10:18:10;;;;;;;49.65;27.55;;;16.00;47.20;;;;;;5047006;28;20506;-78
2022/03/25 10:20:37;;;;;;;43.17;27.73;;;15.80;47.50;;;;;;5062666;28;20017;-78
2022/03/25 10:23:13;;;;;;;45.08;26.70;;;16.00;48.00;;;;;;5057370;28;20391;-78
2022/03/25 10:25:56;;;;;;;42.35;26.17;;;15.80;48.50;;;;;;5050104;28;20032;-79
2022/03/25 10:28:39;;;;;;;46.05;27.73;;;15.70;46.40;;;;;;5063404;28;20050;-78
2022/03/25 10:31:17;;;;;;;50.20;27.63;;;16.40;46.90;;;;;;5046606;28;20025;-78
2022/03/25 10:33:57;;;;;;;42.72;27.48;;;16.40;46.40;;;;;;5069327;28;20020;-78
2022/03/25 10:36:25;;;;;;;55.35;30.67;;;16.10;46.70;;;;;;5048646;28;20442;-78
2022/03/25 10:38:54;;;;;;;47.10;27.85;;;15.90;48.00;;;;;;5048435;28;20017;-78
2022/03/25 10:41:22;;;;;;;44.88;27.25;;;16.20;47.00;;;;;;5070000;28;20021;-78
2022/03/25 10:43:54;;;;;;;42.63;24.67;;;16.40;46.80;;;;;;5068932;28;20475;-78
2022/03/25 10:46:31;;;;;;;37.08;24.20;;;16.60;45.20;;;;;;5057736;28;20024;-79
2022/03/25 10:48:57;;;;;;;44.78;26.40;;;16.80;44.80;;;;;;5073109;28;20036;-79
2022/03/25 10:51:22;;;;;;;47.78;26.90;;;16.60;45.50;;;;;;5060116;28;20067;-79
2022/03/25 10:53:57;;;;;;;48.97;27.85;;;16.90;44.60;;;;;;5046342;28;20063;-79
2022/03/25 10:56:22;;;;;;;42.67;27.17;;;16.80;45.50;;;;;;5054819;28;20021;-79
2022/03/25 10:58:53;;;;;;;46.25;28.27;;;16.90;45.50;;;;;;5079354;28;20016;-79
2022/03/25 11:01:19;;;;;;;42.60;26.85;;;16.80;46.10;;;;;;5056675;28;20037;-79
2022/03/25 11:03:46;;;;;;;40.80;25.05;;;17.00;44.50;;;;;;5058025;28;20025;-79
2022/03/25 11:06:15;;;;;;;41.58;25.27;;;17.30;44.90;;;;;;5052953;28;20032;-79
2022/03/25 11:08:42;;;;;;;42.03;26.08;;;17.60;43.50;;;;;;5075656;28;20021;-79
2022/03/25 11:11:08;;;;;;;53.17;28.15;;;17.30;43.80;;;;;;5088103;28;20101;-79
2022/03/25 11:13:34;;;;;;;42.75;26.13;;;17.50;43.90;;;;;;5074478;28;20029;-79
2022/03/25 11:16:02;;;;;;;44.40;27.35;;;17.60;44.70;;;;;;5047365;28;20511;-79
2022/03/25 11:18:28;;;;;;;50.22;28.67;;;17.80;44.40;;;;;;5071030;28;20020;-79
2022/03/25 11:20:58;;;;;;;48.65;29.27;;;17.60;44.60;;;;;;5047707;28;20068;-79
2022/03/25 11:23:42;;;;;;;49.13;29.25;;;17.70;45.30;;;;;;5065981;28;20074;-80
2022/03/25 11:26:11;;;;;;;47.22;30.25;;;17.80;45.40;;;;;;5067266;28;20773;-80
2022/03/25 11:28:37;;;;;;;50.92;29.42;;;17.90;45.50;;;;;;5049646;28;20399;-79
2022/03/25 11:31:05;;;;;;;46.70;29.92;;;18.00;43.80;;;;;;5062127;28;20024;-79
2022/03/25 11:33:31;;;;;;;49.08;29.27;;;18.10;43.90;;;;;;5055297;28;20114;-79
2022/03/25 11:36:18;;;;;;;43.40;28.55;;;18.00;42.90;;;;;;5045994;28;20037;-79
2022/03/25 11:38:44;;;;;;;47.60;26.33;;;18.30;42.30;;;;;;5065181;28;20512;-79
2022/03/25 11:41:27;;;;;;;43.65;27.70;;;18.00;43.10;;;;;;5073056;28;20020;-79
2022/03/25 11:44:23;;;;;;;41.50;28.15;;;18.50;42.80;;;;;;5073145;28;20533;-79
2022/03/25 11:47:03;;;;;;;42.20;27.10;;;17.90;44.00;;;;;;5051938;28;20480;-79
2022/03/25 11:49:36;;;;;;;43.70;25.50;;;18.30;42.40;;;;;;5073919;28;20039;-79
2022/03/25 11:52:29;;;;;;;43.20;26.83;;;18.30;42.30;;;;;;5049526;28;20050;-79
2022/03/25 11:54:58;;;;;;;40.97;26.00;;;18.50;42.00;;;;;;5050377;28;20044;-79
2022/03/25 11:57:27;;;;;;;37.08;22.38;;;18.60;41.60;;;;;;5051921;28;20033;-79
2022/03/25 11:59:56;;;;;;;28.48;19.77;;;18.70;39.80;;;;;;5050240;28;20024;-79
2022/03/25 12:02:29;;;;;;;35.80;21.15;;;19.00;39.40;;;;;;5055559;28;20032;-79
2022/03/25 12:04:56;;;;;;;33.45;20.63;;;18.80;38.90;;;;;;5066387;28;20040;-79
2022/03/25 12:07:22;;;;;;;37.65;20.42;;;18.50;39.30;;;;;;5075563;28;20024;-79
2022/03/25 12:09:48;;;;;;;33.78;20.50;;;19.00;39.00;;;;;;5051253;28;20457;-79
2022/03/25 12:12:14;;;;;;;33.08;18.75;;;18.80;38.90;;;;;;5074858;28;20024;-79
2022/03/25 12:15:10;;;;;;;26.52;16.05;;;19.10;38.10;;;;;;5069065;28;20480;-79
2022/03/25 12:17:37;;;;;;;25.95;15.88;;;18.60;36.70;;;;;;5058369;28;20059;-79
2022/03/25 12:20:04;;;;;;;29.45;19.40;;;19.00;37.00;;;;;;5068405;28;20032;-79
2022/03/25 12:22:33;;;;;;;31.48;20.17;;;20.00;37.00;;;;;;5061450;28;20025;-80
2022/03/25 12:25:09;;;;;;;32.92;19.10;;;19.70;37.60;;;;;;5068436;28;20033;-80
2022/03/25 12:27:35;;;;;;;31.50;19.40;;;20.30;38.10;;;;;;5073763;28;20063;-79
2022/03/25 12:30:01;;;;;;;27.52;16.73;;;20.50;35.40;;;;;;5052993;28;20029;-80
2022/03/25 12:32:33;;;;;;;30.00;16.10;;;20.40;33.70;;;;;;5055541;28;20077;-79
2022/03/25 12:35:10;;;;;;;27.70;15.93;;;19.90;31.70;;;;;;5073520;28;20128;-79
2022/03/25 12:37:37;;;;;;;24.20;15.98;;;20.10;32.70;;;;;;5079646;28;20028;-79
2022/03/25 12:40:17;;;;;;;32.17;16.42;;;20.90;32.60;;;;;;5057460;28;20142;-80